VTSH 
Songkhla Airport
Thailand 
ICAOIATAStatus
VTSHSGZOperational
LatitudeLongitude
7° 11' 11" N100° 36' 28" E
7.186560100.608002
Local Time (DST+7)UTC (GMT+7)
04-18-2014 12:34 pm04-18-2014 05:34
Sunrise-SunsetLocalUTC
Begin Civil Twilight05:45 am22:45
Sunrise06:06 am23:06
Sunset06:27 pm11:27
End Civil Twilight06:48 pm11:48

Current Weather

METARObservedFlight Conditions

VTSH 180500Z 04008KT 9999 FEW020CB SCT300 32/23 Q1010 A2983 CB NE

Fri, Apr 18, 2014 @ 05:00 UTC(Z)

(34 Minutes ago)

VFR

(Visual Flight Rules)

WindVisibilityCloudsConditions
040° at 8 knots (15 kph)
10 km or more
  • Few at 2,000' AGL
  • Scattered at 30,000' AGL
  • No significant weather
TemperaturesReadingsPrecipitation
Current Temp32°C (90°F)
Dewpoint23°C (73°F)
Heat Index37°C (99°F)
Humidity59%
Altimeter29.82"Hg
Sea Level Pressure1010mb
Field Elevation16.4'
None Recorded

Additional weather within a 92.6km radius of VTSH

Location METAR
VTSS

36.9km S (220°)

34 minutes ago
VFR VFR    MVFR MVFR    IFR IFR    LIFR LIFR    Unknown Unknown

Previous 24 hour Weather Graphs

  Loading...

CheckWX.com is intended as a tool to help pilots better visualize weather data.   It is not intended as a substitute for an official weather briefing obtained from a Flight Service Station.
CheckWX.com does not meet the FAA requirements for an official pre-flight weather briefing.   Therefore, it's important that pilots still call and obtain an official FSS pre-flight weather briefing.